createdAt,value
2022-11-09T00:01:28.406Z,10.37
2022-11-09T00:06:30.895Z,10.38
2022-11-09T00:11:32.475Z,10.27
2022-11-09T00:16:33.907Z,10.41
2022-11-09T00:21:35.322Z,10.36
2022-11-09T00:26:36.726Z,10.31
2022-11-09T00:31:38.193Z,10.34
2022-11-09T00:36:39.672Z,10.33
2022-11-09T00:41:41.238Z,10.35
2022-11-09T00:46:42.643Z,10.41
2022-11-09T00:51:44.055Z,10.32
2022-11-09T00:56:45.475Z,10.30
2022-11-09T01:01:46.880Z,10.40
2022-11-09T01:06:48.364Z,10.44
2022-11-09T01:11:49.891Z,10.32
2022-11-09T01:16:51.756Z,10.32
2022-11-09T01:21:53.240Z,10.27
2022-11-09T01:26:55.015Z,10.23
2022-11-09T01:31:56.498Z,10.29
2022-11-09T01:36:57.942Z,10.26
2022-11-09T01:41:59.353Z,10.33
2022-11-09T01:47:06.355Z,10.42
2022-11-09T01:52:31.527Z,10.35
2022-11-09T01:57:41.459Z,10.41
2022-11-09T02:03:08.595Z,10.48
2022-11-09T02:08:12.763Z,10.41
2022-11-09T02:13:18.384Z,10.37
2022-11-09T02:18:21.402Z,10.37
2022-11-09T02:23:25.307Z,10.28
2022-11-09T02:28:28.007Z,10.27
2022-11-09T02:33:29.460Z,10.29
2022-11-09T02:38:31.935Z,10.28
2022-11-09T02:43:35.961Z,10.26
2022-11-09T02:48:37.359Z,10.24
2022-11-09T02:53:38.756Z,10.15
2022-11-09T02:58:40.222Z,10.08
2022-11-09T03:03:41.807Z,9.97
2022-11-09T03:08:43.224Z,9.93
2022-11-09T03:13:44.624Z,9.92
2022-11-09T03:18:46.157Z,9.85
2022-11-09T03:23:48.425Z,9.66
2022-11-09T03:28:49.968Z,9.50
2022-11-09T03:33:51.366Z,9.53
2022-11-09T03:38:52.795Z,9.49
2022-11-09T03:43:54.296Z,9.29
2022-11-09T03:48:55.720Z,9.25
2022-11-09T03:53:57.129Z,9.21
2022-11-09T03:58:58.562Z,9.14
2022-11-09T04:04:00.033Z,9.09
2022-11-09T04:09:01.563Z,9.12
2022-11-09T04:14:02.966Z,9.10
2022-11-09T04:19:04.436Z,9.05
2022-11-09T04:24:06.011Z,9.01
2022-11-09T04:29:07.659Z,8.95
2022-11-09T04:34:09.090Z,8.89
2022-11-09T04:39:11.278Z,8.81
2022-11-09T04:44:12.718Z,8.76
2022-11-09T04:49:14.165Z,8.72
2022-11-09T04:54:15.629Z,8.69
2022-11-09T04:59:17.257Z,8.72
2022-11-09T05:04:18.817Z,8.85
2022-11-09T05:09:20.287Z,8.84
2022-11-09T05:14:21.752Z,8.74
2022-11-09T05:19:23.182Z,8.68
2022-11-09T05:24:24.593Z,8.68
2022-11-09T05:29:26.029Z,8.62
2022-11-09T05:34:27.467Z,8.70
2022-11-09T05:39:29.127Z,8.71
2022-11-09T05:44:30.783Z,8.71
2022-11-09T05:49:32.190Z,8.84
2022-11-09T05:54:33.610Z,8.92
2022-11-09T05:59:35.054Z,9.07
2022-11-09T06:04:36.456Z,9.18
2022-11-09T06:09:37.955Z,9.22
2022-11-09T06:14:39.475Z,9.08
2022-11-09T06:19:40.893Z,9.04
2022-11-09T06:24:42.449Z,9.08
2022-11-09T06:29:43.856Z,9.07
2022-11-09T06:34:48.245Z,9.02
2022-11-09T06:39:51.654Z,9.04
2022-11-09T06:44:53.127Z,9.08
2022-11-09T06:49:54.698Z,9.05
2022-11-09T06:54:56.112Z,9.01
2022-11-09T07:00:00.160Z,9.05
2022-11-09T07:05:01.577Z,9.13
2022-11-09T07:10:03.256Z,9.09
2022-11-09T07:15:05.931Z,9.17
2022-11-09T07:20:09.828Z,9.25
2022-11-09T07:25:12.613Z,9.26
2022-11-09T07:30:14.949Z,9.39
2022-11-09T07:35:16.494Z,9.45
2022-11-09T07:40:18.076Z,9.69
2022-11-09T07:45:19.498Z,10.07
2022-11-09T07:50:20.894Z,10.41
2022-11-09T07:55:22.930Z,10.73
2022-11-09T08:00:25.975Z,11.01
2022-11-09T08:05:27.445Z,11.06
2022-11-09T08:10:30.248Z,11.16
2022-11-09T08:15:32.152Z,11.24
2022-11-09T08:20:34.643Z,11.42
2022-11-09T08:25:36.393Z,11.66
2022-11-09T08:30:37.882Z,11.93
2022-11-09T08:35:39.605Z,12.30
2022-11-09T08:40:41.055Z,12.41
2022-11-09T08:45:42.471Z,12.44
2022-11-09T08:50:43.922Z,12.42
2022-11-09T08:55:49.301Z,12.58
2022-11-09T09:00:51.216Z,12.74
2022-11-09T09:05:52.760Z,12.79
2022-11-09T09:10:54.182Z,12.69
2022-11-09T09:15:55.601Z,12.83
2022-11-09T09:20:57.009Z,12.85
2022-11-09T09:25:58.843Z,12.92
2022-11-09T09:31:01.662Z,13.02
2022-11-09T09:36:03.296Z,13.14
2022-11-09T09:41:06.765Z,13.31
2022-11-09T09:46:22.557Z,13.41
2022-11-09T09:51:37.756Z,13.48
2022-11-09T09:56:42.125Z,13.41
2022-11-09T10:01:44.715Z,13.48
2022-11-09T10:06:59.216Z,13.47
2022-11-09T10:12:12.984Z,13.52
2022-11-09T10:17:29.474Z,13.52
2022-11-09T10:22:54.746Z,13.48
2022-11-09T10:28:12.797Z,13.78
2022-11-09T10:33:20.812Z,14.14
2022-11-09T10:38:28.132Z,14.55
2022-11-09T10:43:29.545Z,14.89
2022-11-09T10:48:36.518Z,15.01
2022-11-09T10:53:38.104Z,14.80
2022-11-09T10:59:00.894Z,14.66
2022-11-09T11:04:21.249Z,14.74
2022-11-09T11:09:23.387Z,15.09
2022-11-09T11:14:41.555Z,15.26
2022-11-09T11:19:43.020Z,15.25
2022-11-09T11:24:57.913Z,15.15
2022-11-09T11:30:10.535Z,15.04
2022-11-09T11:35:18.460Z,15.11
2022-11-09T11:40:27.835Z,15.01
2022-11-09T11:45:41.852Z,14.71
2022-11-09T11:51:14.702Z,14.51
2022-11-09T11:56:24.986Z,14.65
2022-11-09T12:01:56.643Z,14.87
2022-11-09T12:07:20.975Z,15.34
2022-11-09T12:12:25.249Z,15.75
2022-11-09T12:17:52.260Z,16.01
2022-11-09T12:23:04.442Z,16.08
2022-11-09T12:28:41.104Z,16.07
2022-11-09T12:33:51.363Z,15.76
2022-11-09T12:39:00.612Z,15.52
2022-11-09T12:44:27.605Z,15.32
2022-11-09T12:49:36.840Z,15.27
2022-11-09T12:54:44.263Z,15.18
2022-11-09T12:59:50.418Z,15.14
2022-11-09T13:05:00.747Z,15.25
2022-11-09T13:10:02.848Z,15.35
2022-11-09T13:15:26.934Z,15.37
2022-11-09T13:25:59.094Z,15.22
2022-11-09T13:31:00.557Z,15.26
2022-11-09T13:36:07.912Z,15.23
2022-11-09T13:41:31.901Z,15.13
2022-11-09T13:46:39.062Z,15.02
2022-11-09T13:51:48.000Z,14.89
2022-11-09T13:56:50.554Z,14.73
2022-11-09T14:01:57.149Z,14.50
2022-11-09T14:07:10.871Z,14.45
2022-11-09T14:12:32.013Z,14.34
2022-11-09T14:17:57.340Z,14.19
2022-11-09T14:22:58.823Z,13.96
2022-11-09T14:28:00.351Z,13.64
2022-11-09T14:33:01.771Z,13.69
2022-11-09T14:38:17.383Z,13.53
2022-11-09T14:43:35.972Z,13.41
2022-11-09T14:48:39.796Z,13.28
2022-11-09T14:53:44.979Z,13.09
2022-11-09T14:58:47.387Z,12.89
2022-11-09T15:04:07.392Z,12.66
2022-11-09T15:09:14.549Z,12.72
2022-11-09T15:14:23.615Z,12.41
2022-11-09T15:19:29.810Z,12.27
2022-11-09T15:24:47.167Z,12.23
2022-11-09T15:29:48.637Z,12.14
2022-11-09T15:34:55.040Z,11.91
2022-11-09T15:39:58.266Z,11.93
2022-11-09T15:45:00.356Z,11.79
2022-11-09T15:50:15.099Z,11.81
2022-11-09T15:55:22.206Z,11.48
2022-11-09T16:00:23.881Z,11.41
2022-11-09T16:05:27.728Z,11.34
2022-11-09T16:10:30.720Z,11.32
2022-11-09T16:15:33.493Z,11.39
2022-11-09T16:20:34.999Z,11.36
2022-11-09T16:25:36.593Z,11.32
2022-11-09T16:30:41.543Z,11.28
2022-11-09T16:35:45.544Z,11.22
2022-11-09T16:40:46.991Z,11.16
2022-11-09T16:45:50.136Z,11.05
2022-11-09T16:50:53.654Z,11.09
2022-11-09T16:55:55.204Z,10.96
2022-11-09T17:01:10.606Z,11.02
2022-11-09T17:06:13.737Z,11.12
2022-11-09T17:11:15.779Z,10.99
2022-11-09T17:16:20.318Z,11.10
2022-11-09T17:21:24.170Z,11.00
2022-11-09T17:26:26.342Z,11.00
2022-11-09T17:31:27.856Z,11.01
2022-11-09T17:36:49.187Z,10.94
2022-11-09T17:41:50.864Z,10.97
2022-11-09T17:46:52.423Z,10.94
2022-11-09T17:51:54.212Z,10.97
2022-11-09T17:56:55.624Z,10.98
2022-11-09T18:01:57.119Z,10.97
2022-11-09T18:06:58.705Z,10.99
2022-11-09T18:12:00.136Z,10.95
2022-11-09T18:17:01.677Z,10.82
2022-11-09T18:22:04.863Z,10.77
2022-11-09T18:27:07.971Z,10.73
2022-11-09T18:32:09.373Z,10.68
2022-11-09T18:37:10.768Z,10.65
2022-11-09T18:42:12.333Z,10.65
2022-11-09T18:47:15.089Z,10.68
2022-11-09T18:52:16.710Z,10.69
2022-11-09T18:57:20.030Z,10.72
2022-11-09T19:02:21.697Z,10.63
2022-11-09T19:07:23.090Z,10.61
2022-11-09T19:12:25.068Z,10.58
2022-11-09T19:17:26.527Z,10.50
2022-11-09T19:22:29.122Z,10.36
2022-11-09T19:27:30.530Z,10.29
2022-11-09T19:32:31.993Z,10.31
2022-11-09T19:37:33.391Z,10.35
2022-11-09T19:42:34.816Z,10.30
2022-11-09T19:47:36.260Z,10.30
2022-11-09T19:52:38.806Z,10.31
2022-11-09T19:57:40.212Z,10.33
2022-11-09T20:02:41.642Z,10.31
2022-11-09T20:07:43.528Z,10.28
2022-11-09T20:12:50.670Z,10.16
2022-11-09T20:17:52.070Z,10.18
2022-11-09T20:22:53.517Z,10.23
2022-11-09T20:27:55.246Z,10.24
2022-11-09T20:32:56.789Z,10.31
2022-11-09T20:37:58.260Z,10.39
2022-11-09T20:42:59.692Z,10.36
2022-11-09T20:48:14.840Z,10.27
2022-11-09T20:53:22.565Z,10.02
2022-11-09T20:58:25.854Z,10.00
2022-11-09T21:03:27.804Z,10.09
2022-11-09T21:08:29.448Z,10.19
2022-11-09T21:13:31.199Z,10.26
2022-11-09T21:18:32.989Z,10.36
2022-11-09T21:23:53.307Z,10.51
2022-11-09T21:29:13.364Z,10.63
2022-11-09T21:34:14.955Z,10.72
2022-11-09T21:39:16.682Z,10.80
2022-11-09T21:44:18.521Z,10.85
2022-11-09T21:49:19.960Z,11.01
2022-11-09T21:54:22.348Z,10.91
2022-11-09T21:59:24.308Z,10.95
2022-11-09T22:04:25.734Z,11.04
2022-11-09T22:09:32.420Z,11.06
2022-11-09T22:15:00.145Z,11.12
2022-11-09T22:20:20.241Z,11.13
2022-11-09T22:25:21.643Z,11.20
2022-11-09T22:30:23.056Z,11.25
2022-11-09T22:35:24.482Z,11.24
2022-11-09T22:40:25.934Z,11.33
2022-11-09T22:45:27.363Z,11.43
2022-11-09T22:50:28.829Z,11.52
2022-11-09T22:55:30.548Z,11.58
2022-11-09T23:00:31.983Z,11.63
2022-11-09T23:05:33.423Z,11.70
2022-11-09T23:10:35.120Z,11.74
2022-11-09T23:15:36.535Z,11.78
2022-11-09T23:20:38.538Z,11.75
2022-11-09T23:25:54.895Z,11.63
2022-11-09T23:31:04.792Z,11.73
2022-11-09T23:36:07.464Z,11.67
2022-11-09T23:41:11.491Z,11.65
2022-11-09T23:46:14.675Z,11.63
2022-11-09T23:51:18.457Z,11.57
2022-11-09T23:56:21.156Z,11.61
